Dayton, OH (45400)

7:49 PM EDT on August 26, 2016 (GMT -0400)
Oregon Historic District | | Change Station
Active Advisory: Special Statement

Elev 745 ft 39.75 °N, 84.18 °W | Updated 7 seconds ago

Scattered Clouds
Scattered Clouds
86.5 °F
Feels Like 93 °F
N
0.0
Wind Variable Wind from SE
Gusts 0.0 mph

Today
High -- | Low -- °F
--% Chance of Precip.
Yesterday
High -- | Low -- °F
Precip. -- in
Pressure 30.07 in
Visibility 10.0 miles
Clouds Scattered Clouds 4400 ft
Heat Index 93 °F
Dew Point 72 °F
Humidity 62%
Rainfall 0.00 in
Snow Depth Not available.
6:59 AM 8:16 PM
Waning Crescent, 30% visible
METAR KFFO 262258Z AUTO 05005KT 10SM SCT044 31/22 A3008 RMK AO2 SLP182 T03100222
Pressure 30.07 in
Visibility 10.0 miles
Clouds Scattered Clouds 4400 ft
Heat Index 93 °F
Dew Point 72 °F
Humidity 62%
Rainfall 0.00 in
Snow Depth Not available.
6:59 AM 8:16 PM
Waning Crescent, 30% visible
METAR KFFO 262258Z AUTO 05005KT 10SM SCT044 31/22 A3008 RMK AO2 SLP182 T03100222

10-Day Weather Forecast

Almanac

Astronomy

Aug. 26, 2016 Rise Set
Actual Time
Civil Twilight
Nautical Twilight
Astronomical Twilight
Moon
Length of Visible Light
Length of Day
Tomorrow will be .
, % of the Moon is Illuminated

Today's Extremes

State Highs State Lows

Community

WunderPhotos

Upload Photos

1,935,255 photos uploaded!

WunderBlog® & News

Nearby

Air Quality

  Air Quality AQ Index Pollutant
Not available.

Snow Depth

Station Depth Elevation

Earthquake Activity

City Distance Mag. Time & Date
Minimum magnitude displayed is 2.5.

Coastal Water Temperatures

Place Temperature

Stations

Nearby Weather Stations

Station Location Temp. Windchill Dew Point Humidity Wind Precip. Elev Updated Type
                   

Watches & Warnings

Special Statement
Issued: 7:43 PM EDT Aug. 26, 2016 – National Weather Service

... A strong thunderstorm will affect southern Montgomery County until
815 PM EDT...

At 743 PM EDT... radar indicated a strong thunderstorm over West
Carrollton... moving northeast at 10 mph.

Storm hazards include...
winds to 45 mph... very heavy rain...

Locations impacted include...
Dayton... Kettering... Beavercreek... Trotwood... Miamisburg...
Springboro... Moraine... Oakwood... West Carrollton... Riverside...
Germantown... New Lebanon... Centerville...
Drexel and Woodbourne-Hyde Park.

This includes I-75 in Ohio between mile markers 41 and 54.

Water will pond on roads and may quickly fill roadside ditches and
small streams.

To report hazardous weather conditions... go to our website at
weather.Gov/iln and submit your report via social media... when you
can do so safely.

Lat... Lon 3982 8436 3974 8410 3970 8410 3958 8422
      3958 8424 3963 8442
time... Mot... loc 2343z 203deg 7kt 3967 8429